createdAt,value
2018-12-16T00:00:40.847Z,0
2018-12-16T00:01:42.864Z,0
2018-12-16T00:02:44.885Z,0
2018-12-16T00:03:46.926Z,0
2018-12-16T00:04:51.360Z,0
2018-12-16T00:05:53.395Z,0
2018-12-16T00:06:55.419Z,0
2018-12-16T00:07:57.431Z,0
2018-12-16T00:08:59.459Z,0
2018-12-16T00:10:01.484Z,0
2018-12-16T00:11:03.512Z,0
2018-12-16T00:12:05.541Z,0
2018-12-16T00:13:07.858Z,0
2018-12-16T00:14:09.864Z,0
2018-12-16T00:15:11.884Z,0
2018-12-16T00:16:13.920Z,0
2018-12-16T00:17:15.927Z,0
2018-12-16T00:18:17.982Z,0
2018-12-16T00:19:20.004Z,0
2018-12-16T00:20:22.018Z,0
2018-12-16T00:21:24.067Z,0
2018-12-16T00:22:31.439Z,0
2018-12-16T00:23:33.458Z,0
2018-12-16T00:24:35.469Z,0
2018-12-16T00:25:37.499Z,0
2018-12-16T00:26:39.554Z,0
2018-12-16T00:27:41.654Z,0
2018-12-16T00:28:43.685Z,0
2018-12-16T00:29:45.696Z,0
2018-12-16T00:30:47.729Z,0
2018-12-16T00:31:49.757Z,0
2018-12-16T00:32:52.058Z,0
2018-12-16T00:33:54.067Z,0
2018-12-16T00:34:56.086Z,0
2018-12-16T00:35:58.110Z,0
2018-12-16T00:37:00.136Z,0
2018-12-16T00:38:02.426Z,0
2018-12-16T00:39:04.906Z,0
2018-12-16T00:40:07.209Z,0
2018-12-16T00:41:09.216Z,0
2018-12-16T00:42:11.237Z,0
2018-12-16T00:43:13.263Z,0
2018-12-16T00:44:15.284Z,0
2018-12-16T00:45:17.312Z,0
2018-12-16T00:46:19.619Z,0
2018-12-16T00:47:21.630Z,0
2018-12-16T00:48:23.644Z,0
2018-12-16T00:49:25.676Z,0
2018-12-16T00:50:27.685Z,0
2018-12-16T00:51:29.709Z,0
2018-12-16T00:52:37.852Z,0
2018-12-16T00:53:40.155Z,0
2018-12-16T00:54:42.469Z,0
2018-12-16T00:55:44.525Z,0
2018-12-16T00:56:46.547Z,0
2018-12-16T00:57:48.556Z,0
2018-12-16T00:58:50.877Z,0
2018-12-16T00:59:52.893Z,0
2018-12-16T01:00:54.940Z,0
2018-12-16T01:01:56.968Z,0
2018-12-16T01:02:58.972Z,0
2018-12-16T01:04:01.008Z,0
2018-12-16T01:05:03.094Z,0
2018-12-16T01:06:05.131Z,0
2018-12-16T01:07:07.424Z,0
2018-12-16T01:08:09.448Z,0
2018-12-16T01:09:12.242Z,0
2018-12-16T01:10:14.252Z,0
2018-12-16T01:11:16.283Z,0
2018-12-16T01:12:18.300Z,0
2018-12-16T01:13:20.317Z,0
2018-12-16T01:14:22.327Z,0
2018-12-16T01:15:24.642Z,0
2018-12-16T01:16:26.675Z,0
2018-12-16T01:17:29.080Z,0
2018-12-16T01:18:31.112Z,0
2018-12-16T01:19:33.139Z,0
2018-12-16T01:20:35.160Z,0
2018-12-16T01:21:37.189Z,0
2018-12-16T01:22:44.859Z,0
2018-12-16T01:23:46.871Z,0
2018-12-16T01:24:48.899Z,0
2018-12-16T01:25:50.917Z,0
2018-12-16T01:26:53.218Z,0
2018-12-16T01:27:55.255Z,0
2018-12-16T01:28:57.277Z,0
2018-12-16T01:29:59.299Z,0
2018-12-16T01:31:01.357Z,0
2018-12-16T01:32:03.680Z,0
2018-12-16T01:33:05.998Z,0
2018-12-16T01:34:08.075Z,0
2018-12-16T01:35:10.101Z,0
2018-12-16T01:36:12.111Z,0
2018-12-16T01:37:14.154Z,0
2018-12-16T01:38:16.175Z,0
2018-12-16T01:39:18.202Z,0
2018-12-16T01:40:20.277Z,0
2018-12-16T01:41:22.310Z,0
2018-12-16T01:42:24.330Z,0
2018-12-16T01:43:26.344Z,0
2018-12-16T01:44:28.376Z,0
2018-12-16T01:45:30.664Z,0
2018-12-16T01:46:32.688Z,0
2018-12-16T01:47:34.790Z,0
2018-12-16T01:48:36.813Z,0
2018-12-16T01:49:39.132Z,0
2018-12-16T01:50:41.148Z,0
2018-12-16T01:51:43.200Z,0
2018-12-16T01:52:51.827Z,0
2018-12-16T01:53:53.839Z,0
2018-12-16T01:54:55.866Z,0
2018-12-16T01:55:57.893Z,0
2018-12-16T01:56:59.903Z,0
2018-12-16T01:58:02.202Z,0
2018-12-16T01:59:04.498Z,0
2018-12-16T02:00:06.509Z,0
2018-12-16T02:01:08.830Z,0
2018-12-16T02:02:10.853Z,0
2018-12-16T02:03:12.873Z,0
2018-12-16T02:04:14.881Z,0
2018-12-16T02:05:17.302Z,0
2018-12-16T02:06:19.316Z,0
2018-12-16T02:07:21.332Z,0
2018-12-16T02:08:23.359Z,0
2018-12-16T02:09:25.382Z,0
2018-12-16T02:10:27.408Z,0
2018-12-16T02:11:29.814Z,0
2018-12-16T02:12:31.837Z,0
2018-12-16T02:13:33.842Z,0
2018-12-16T02:14:35.867Z,0
2018-12-16T02:15:38.172Z,0
2018-12-16T02:16:40.852Z,0
2018-12-16T02:17:42.884Z,0
2018-12-16T02:18:44.893Z,0
2018-12-16T02:19:46.910Z,0
2018-12-16T02:20:49.001Z,0
2018-12-16T02:21:51.304Z,0
2018-12-16T02:22:58.422Z,0
2018-12-16T02:24:00.720Z,0
2018-12-16T02:25:02.742Z,0
2018-12-16T02:26:04.756Z,0
2018-12-16T02:27:06.790Z,0
2018-12-16T02:28:09.088Z,0
2018-12-16T02:29:11.102Z,0
2018-12-16T02:30:13.152Z,0
2018-12-16T02:31:15.165Z,0
2018-12-16T02:32:17.470Z,0
2018-12-16T02:33:19.601Z,0
2018-12-16T02:34:21.916Z,0
2018-12-16T02:35:24.234Z,0
2018-12-16T02:36:26.264Z,0
2018-12-16T02:37:28.301Z,0
2018-12-16T02:38:30.310Z,0
2018-12-16T02:39:32.337Z,0
2018-12-16T02:40:34.750Z,0
2018-12-16T02:41:36.769Z,0
2018-12-16T02:42:38.862Z,0
2018-12-16T02:43:40.885Z,0
2018-12-16T02:44:42.928Z,0
2018-12-16T02:45:44.951Z,0
2018-12-16T02:46:46.987Z,0
2018-12-16T02:47:49.005Z,0
2018-12-16T02:48:51.038Z,0
2018-12-16T02:49:53.063Z,0
2018-12-16T02:50:55.076Z,0
2018-12-16T02:51:57.109Z,0
2018-12-16T02:53:05.995Z,0
2018-12-16T02:54:08.013Z,0
2018-12-16T02:55:10.040Z,0
2018-12-16T02:56:12.802Z,0
2018-12-16T02:57:14.838Z,0
2018-12-16T02:58:17.173Z,0
2018-12-16T02:59:19.208Z,0
2018-12-16T03:00:21.625Z,0
2018-12-16T03:01:23.655Z,0
2018-12-16T03:02:25.685Z,0
2018-12-16T03:03:28.353Z,0
2018-12-16T03:04:30.381Z,0
2018-12-16T03:05:32.424Z,0
2018-12-16T03:06:34.455Z,0
2018-12-16T03:07:36.771Z,0
2018-12-16T03:08:39.089Z,0
2018-12-16T03:09:41.502Z,0
2018-12-16T03:10:43.529Z,0
2018-12-16T03:11:45.552Z,0
2018-12-16T03:12:47.879Z,0
2018-12-16T03:13:50.197Z,0
2018-12-16T03:14:52.229Z,0
2018-12-16T03:15:54.275Z,0
2018-12-16T03:16:56.286Z,0
2018-12-16T03:17:58.593Z,0
2018-12-16T03:19:00.618Z,0
2018-12-16T03:20:03.041Z,0
2018-12-16T03:21:05.070Z,0
2018-12-16T03:22:07.370Z,0
2018-12-16T03:23:14.046Z,0
2018-12-16T03:24:16.340Z,0
2018-12-16T03:25:18.386Z,0
2018-12-16T03:26:20.406Z,0
2018-12-16T03:27:22.439Z,0
2018-12-16T03:28:24.761Z,0
2018-12-16T03:29:26.881Z,0
2018-12-16T03:30:28.931Z,0
2018-12-16T03:31:31.257Z,0
2018-12-16T03:32:33.303Z,0
2018-12-16T03:33:35.321Z,0
2018-12-16T03:34:37.733Z,0
2018-12-16T03:35:40.054Z,0
2018-12-16T03:36:42.067Z,0
2018-12-16T03:37:44.085Z,0
2018-12-16T03:38:46.107Z,0
2018-12-16T03:39:48.408Z,0
2018-12-16T03:40:50.443Z,0
2018-12-16T03:41:52.463Z,0
2018-12-16T03:42:54.777Z,0
2018-12-16T03:43:57.083Z,0
2018-12-16T03:44:59.124Z,0
2018-12-16T03:46:01.439Z,0
2018-12-16T03:47:03.466Z,0
2018-12-16T03:48:05.489Z,0
2018-12-16T03:49:07.794Z,0
2018-12-16T03:50:09.833Z,0
2018-12-16T03:51:11.857Z,0
2018-12-16T03:52:14.172Z,0
2018-12-16T03:53:21.509Z,0
2018-12-16T03:54:23.547Z,0
2018-12-16T03:55:25.572Z,0
2018-12-16T03:56:28.153Z,0
2018-12-16T03:57:30.480Z,0
2018-12-16T03:58:32.494Z,0
2018-12-16T03:59:34.520Z,0
2018-12-16T04:00:37.147Z,0
2018-12-16T04:01:39.166Z,0
2018-12-16T04:02:42.128Z,0
2018-12-16T04:03:44.543Z,0
2018-12-16T04:04:46.556Z,0
2018-12-16T04:05:49.547Z,0
2018-12-16T04:06:51.595Z,0
2018-12-16T04:07:53.633Z,0
2018-12-16T04:08:55.650Z,0
2018-12-16T04:09:57.695Z,0
2018-12-16T04:10:59.711Z,0
2018-12-16T04:12:01.739Z,0
2018-12-16T04:13:04.058Z,0
2018-12-16T04:14:06.465Z,0
2018-12-16T04:15:08.499Z,0
2018-12-16T04:16:10.521Z,0
2018-12-16T04:17:12.542Z,0
2018-12-16T04:18:14.550Z,0
2018-12-16T04:19:16.897Z,0
2018-12-16T04:20:19.224Z,0
2018-12-16T04:21:21.540Z,0
2018-12-16T04:22:23.555Z,0
2018-12-16T04:23:28.848Z,0
2018-12-16T04:24:30.890Z,0
2018-12-16T04:25:32.925Z,0
2018-12-16T04:26:35.323Z,0
2018-12-16T04:27:37.342Z,0
2018-12-16T04:28:39.649Z,0
2018-12-16T04:29:41.669Z,0
2018-12-16T04:30:43.706Z,0
2018-12-16T04:31:46.135Z,0
2018-12-16T04:32:48.170Z,0
2018-12-16T04:33:50.214Z,0
2018-12-16T04:34:52.246Z,0
2018-12-16T04:35:54.256Z,0
2018-12-16T04:36:56.274Z,0
2018-12-16T04:37:58.290Z,0
2018-12-16T04:39:00.650Z,0
2018-12-16T04:40:02.689Z,0
2018-12-16T04:41:04.986Z,0
2018-12-16T04:42:07.387Z,0
2018-12-16T04:43:09.430Z,0
2018-12-16T04:44:11.442Z,0
2018-12-16T04:45:13.746Z,0
2018-12-16T04:46:15.783Z,0
2018-12-16T04:47:18.462Z,0
2018-12-16T04:48:20.492Z,0
2018-12-16T04:49:22.902Z,0
2018-12-16T04:50:24.931Z,0
2018-12-16T04:51:27.218Z,0
2018-12-16T04:52:29.527Z,0
2018-12-16T04:53:38.231Z,0
2018-12-16T04:54:40.275Z,0
2018-12-16T04:55:42.304Z,0
2018-12-16T04:56:44.328Z,0
2018-12-16T04:57:46.375Z,0
2018-12-16T04:58:48.696Z,0
2018-12-16T04:59:51.011Z,0
2018-12-16T05:00:53.316Z,0
2018-12-16T05:01:55.622Z,0
2018-12-16T05:02:57.933Z,0
2018-12-16T05:04:00.218Z,0
2018-12-16T05:05:02.932Z,0
2018-12-16T05:06:04.969Z,0
2018-12-16T05:07:06.985Z,0
2018-12-16T05:08:09.302Z,0
2018-12-16T05:09:11.391Z,0
2018-12-16T05:10:13.423Z,0
2018-12-16T05:11:15.839Z,0
2018-12-16T05:12:17.896Z,0
2018-12-16T05:13:20.191Z,0
2018-12-16T05:14:22.504Z,0
2018-12-16T05:15:24.541Z,0
2018-12-16T05:16:26.943Z,0
2018-12-16T05:17:28.972Z,0
2018-12-16T05:18:31.281Z,0
2018-12-16T05:19:33.293Z,0
2018-12-16T05:20:35.607Z,0
2018-12-16T05:21:37.622Z,0
2018-12-16T05:22:39.641Z,0
2018-12-16T05:23:43.389Z,0
2018-12-16T05:24:45.419Z,0
2018-12-16T05:25:47.439Z,0
2018-12-16T05:26:49.464Z,0
2018-12-16T05:27:51.487Z,0
2018-12-16T05:28:53.503Z,0
2018-12-16T05:29:55.532Z,0
2018-12-16T05:30:57.554Z,0
2018-12-16T05:31:59.592Z,0
2018-12-16T05:33:01.603Z,0
2018-12-16T05:34:04.296Z,0
2018-12-16T05:35:06.320Z,0
2018-12-16T05:36:08.727Z,0
2018-12-16T05:37:11.103Z,0
2018-12-16T05:38:13.121Z,0
2018-12-16T05:39:15.423Z,0
2018-12-16T05:40:17.437Z,0
2018-12-16T05:41:19.743Z,0
2018-12-16T05:42:21.776Z,0
2018-12-16T05:43:23.791Z,0
2018-12-16T05:44:25.814Z,0
2018-12-16T05:45:28.136Z,0
2018-12-16T05:46:30.213Z,0
2018-12-16T05:47:32.242Z,0
2018-12-16T05:48:34.281Z,0
2018-12-16T05:49:36.295Z,0
2018-12-16T05:50:38.324Z,0
2018-12-16T05:51:40.347Z,0
2018-12-16T05:52:42.358Z,0
2018-12-16T05:53:50.003Z,0
2018-12-16T05:54:52.018Z,0
2018-12-16T05:55:54.045Z,0
2018-12-16T05:56:56.055Z,0
2018-12-16T05:57:58.370Z,0
2018-12-16T05:59:00.390Z,0
2018-12-16T06:00:02.411Z,0
2018-12-16T06:01:04.827Z,0
2018-12-16T06:02:07.115Z,0
2018-12-16T06:03:09.147Z,0
2018-12-16T06:04:11.163Z,0
2018-12-16T06:05:13.190Z,0
2018-12-16T06:06:15.478Z,0
2018-12-16T06:07:17.784Z,0
2018-12-16T06:08:20.104Z,0
2018-12-16T06:09:22.117Z,0
2018-12-16T06:10:24.148Z,0
2018-12-16T06:11:26.157Z,0
2018-12-16T06:12:28.177Z,0
2018-12-16T06:13:30.206Z,0
2018-12-16T06:14:32.231Z,0
2018-12-16T06:15:34.270Z,0
2018-12-16T06:16:37.032Z,0
2018-12-16T06:17:39.442Z,0
2018-12-16T06:18:41.460Z,0
2018-12-16T06:19:43.755Z,0
2018-12-16T06:20:46.057Z,0
2018-12-16T06:21:48.081Z,0
2018-12-16T06:22:50.088Z,0
2018-12-16T06:23:57.014Z,0
2018-12-16T06:24:59.035Z,0
2018-12-16T06:26:01.056Z,0
2018-12-16T06:27:03.480Z,0
2018-12-16T06:28:05.775Z,0
2018-12-16T06:29:07.798Z,0
2018-12-16T06:30:09.809Z,0
2018-12-16T06:31:11.841Z,0
2018-12-16T06:32:13.850Z,0
2018-12-16T06:33:15.869Z,0
2018-12-16T06:34:17.893Z,0
2018-12-16T06:35:19.900Z,0
2018-12-16T06:36:21.944Z,0
2018-12-16T06:37:23.967Z,0
2018-12-16T06:38:25.997Z,0
2018-12-16T06:39:28.003Z,0
2018-12-16T06:40:30.313Z,0
2018-12-16T06:41:32.377Z,0
2018-12-16T06:42:34.399Z,0
2018-12-16T06:43:36.435Z,0
2018-12-16T06:44:38.443Z,0
2018-12-16T06:45:40.465Z,0
2018-12-16T06:46:42.580Z,0
2018-12-16T06:47:44.990Z,0
2018-12-16T06:48:47.008Z,0
2018-12-16T06:49:49.029Z,0
2018-12-16T06:50:51.042Z,0
2018-12-16T06:51:53.055Z,0
2018-12-16T06:52:55.091Z,0
2018-12-16T06:54:03.987Z,0
2018-12-16T06:55:06.014Z,0
2018-12-16T06:56:08.648Z,0
2018-12-16T06:57:10.677Z,0
2018-12-16T06:58:12.711Z,0
2018-12-16T06:59:14.723Z,0
2018-12-16T07:00:17.138Z,0
2018-12-16T07:01:19.151Z,0
2018-12-16T07:02:21.172Z,0
2018-12-16T07:03:23.190Z,0
2018-12-16T07:04:25.237Z,0
2018-12-16T07:05:27.247Z,0
2018-12-16T07:06:29.258Z,0
2018-12-16T07:07:31.281Z,0
2018-12-16T07:08:33.289Z,0
2018-12-16T07:09:35.320Z,0
2018-12-16T07:10:37.375Z,0
2018-12-16T07:11:39.469Z,0
2018-12-16T07:12:41.480Z,0
2018-12-16T07:13:43.864Z,0
2018-12-16T07:14:45.917Z,0
2018-12-16T07:15:48.333Z,0
2018-12-16T07:16:50.401Z,0
2018-12-16T07:17:52.745Z,0
2018-12-16T07:18:54.800Z,0
2018-12-16T07:19:56.867Z,0
2018-12-16T07:20:59.223Z,0
2018-12-16T07:22:01.270Z,0
2018-12-16T07:23:03.655Z,0
2018-12-16T07:24:10.650Z,0
2018-12-16T07:25:12.678Z,0
2018-12-16T07:26:14.737Z,0
2018-12-16T07:27:16.840Z,0
2018-12-16T07:28:18.910Z,0
2018-12-16T07:29:21.415Z,0
2018-12-16T07:30:23.492Z,0
2018-12-16T07:31:25.929Z,0
2018-12-16T07:32:28.008Z,0
2018-12-16T07:33:30.053Z,0
2018-12-16T07:34:32.135Z,0
2018-12-16T07:35:34.221Z,0
2018-12-16T07:36:36.279Z,0
2018-12-16T07:37:38.796Z,0
2018-12-16T07:38:40.854Z,0
2018-12-16T07:39:42.927Z,0
2018-12-16T07:40:45.289Z,0
2018-12-16T07:41:48.001Z,0
2018-12-16T07:42:50.316Z,0
2018-12-16T07:43:52.387Z,1
2018-12-16T07:44:54.791Z,1
2018-12-16T07:45:57.187Z,1
2018-12-16T07:46:59.827Z,1
2018-12-16T07:48:01.965Z,1
2018-12-16T07:49:04.669Z,1
2018-12-16T07:50:07.107Z,1
2018-12-16T07:51:09.229Z,1
2018-12-16T07:52:11.322Z,2
2018-12-16T07:53:13.410Z,2
2018-12-16T07:54:17.524Z,2
2018-12-16T07:55:19.607Z,2
2018-12-16T07:56:21.934Z,2
2018-12-16T07:57:24.283Z,2
2018-12-16T07:58:26.647Z,3
2018-12-16T07:59:28.730Z,3
2018-12-16T08:00:31.077Z,3
2018-12-16T08:01:33.190Z,2
2018-12-16T08:02:35.526Z,3
2018-12-16T08:03:37.889Z,2
2018-12-16T08:04:39.978Z,3
2018-12-16T08:05:41.997Z,3
2018-12-16T08:06:44.159Z,3
2018-12-16T08:07:46.842Z,3
2018-12-16T08:08:48.859Z,3
2018-12-16T08:09:50.868Z,3
2018-12-16T08:10:52.889Z,3
2018-12-16T08:11:55.480Z,3
2018-12-16T08:12:57.497Z,3
2018-12-16T08:13:59.509Z,3
2018-12-16T08:15:01.556Z,3
2018-12-16T08:16:03.865Z,3
2018-12-16T08:17:06.171Z,3
2018-12-16T08:18:08.183Z,3
2018-12-16T08:19:10.217Z,3
2018-12-16T08:20:12.231Z,3
2018-12-16T08:21:14.528Z,2
2018-12-16T08:22:16.632Z,2
2018-12-16T08:23:18.924Z,3
2018-12-16T08:24:24.565Z,3
2018-12-16T08:25:26.586Z,2
2018-12-16T08:26:28.597Z,3
2018-12-16T08:27:30.617Z,3
2018-12-16T08:28:32.652Z,3
2018-12-16T08:29:34.673Z,3
2018-12-16T08:30:36.773Z,3
2018-12-16T08:31:38.809Z,3
2018-12-16T08:32:40.818Z,3
2018-12-16T08:33:43.130Z,4
2018-12-16T08:34:45.166Z,4
2018-12-16T08:35:47.177Z,4
2018-12-16T08:36:49.486Z,4
2018-12-16T08:37:51.498Z,4
2018-12-16T08:38:53.799Z,5
2018-12-16T08:39:55.842Z,5
2018-12-16T08:40:57.854Z,5
2018-12-16T08:41:59.903Z,5
2018-12-16T08:43:02.202Z,5
2018-12-16T08:44:04.232Z,5
2018-12-16T08:45:06.252Z,5
2018-12-16T08:46:08.273Z,5
2018-12-16T08:47:10.298Z,5
2018-12-16T08:48:12.313Z,5
2018-12-16T08:49:14.325Z,5
2018-12-16T08:50:17.903Z,5
2018-12-16T08:51:19.918Z,5
2018-12-16T08:52:21.947Z,5
2018-12-16T08:53:23.991Z,5
2018-12-16T08:54:31.844Z,5
2018-12-16T08:55:33.864Z,6
2018-12-16T08:56:35.873Z,6
2018-12-16T08:57:37.902Z,6
2018-12-16T08:58:40.305Z,6
2018-12-16T08:59:42.311Z,6
2018-12-16T09:00:44.722Z,6
2018-12-16T09:01:47.140Z,6
2018-12-16T09:02:49.162Z,6
2018-12-16T09:03:51.188Z,7
2018-12-16T09:04:53.291Z,7
2018-12-16T09:05:55.305Z,7
2018-12-16T09:06:57.333Z,7
2018-12-16T09:07:59.379Z,7
2018-12-16T09:09:01.664Z,7
2018-12-16T09:10:03.684Z,7
2018-12-16T09:11:06.006Z,6
2018-12-16T09:12:08.018Z,6
2018-12-16T09:13:10.050Z,6
2018-12-16T09:14:12.065Z,6
2018-12-16T09:15:14.469Z,6
2018-12-16T09:16:16.538Z,6
2018-12-16T09:17:18.609Z,6
2018-12-16T09:18:20.625Z,6
2018-12-16T09:19:22.650Z,6
2018-12-16T09:20:24.671Z,7
2018-12-16T09:21:26.673Z,7
2018-12-16T09:22:28.781Z,7
2018-12-16T09:23:30.801Z,7
2018-12-16T09:24:38.683Z,7
2018-12-16T09:25:40.698Z,7
2018-12-16T09:26:42.758Z,7
2018-12-16T09:27:44.786Z,7
2018-12-16T09:28:46.815Z,7
2018-12-16T09:29:48.827Z,8
2018-12-16T09:30:58.363Z,8
2018-12-16T09:32:00.691Z,9
2018-12-16T09:33:02.712Z,9
2018-12-16T09:34:04.736Z,9
2018-12-16T09:35:06.764Z,9
2018-12-16T09:36:08.780Z,8
2018-12-16T09:37:10.807Z,9
2018-12-16T09:38:12.822Z,9
2018-12-16T09:39:14.840Z,9
2018-12-16T09:40:16.867Z,10
2018-12-16T09:41:18.901Z,10
2018-12-16T09:42:20.911Z,10
2018-12-16T09:43:22.934Z,10
2018-12-16T09:44:24.981Z,10
2018-12-16T09:45:27.001Z,11
2018-12-16T09:46:30.621Z,11
2018-12-16T09:47:32.645Z,11
2018-12-16T09:48:34.724Z,10
2018-12-16T09:49:37.014Z,11
2018-12-16T09:50:39.052Z,11
2018-12-16T09:51:41.069Z,11
2018-12-16T09:52:43.091Z,11
2018-12-16T09:53:45.112Z,11
2018-12-16T09:54:47.119Z,10
2018-12-16T09:55:49.229Z,11
2018-12-16T09:56:51.254Z,11
2018-12-16T09:57:53.278Z,11
2018-12-16T09:58:55.283Z,11
2018-12-16T09:59:57.314Z,12
2018-12-16T10:00:59.335Z,12
2018-12-16T10:02:01.359Z,13
2018-12-16T10:03:05.427Z,12
2018-12-16T10:04:07.443Z,13
2018-12-16T10:05:09.465Z,13
2018-12-16T10:06:11.509Z,13
2018-12-16T10:07:13.534Z,13
2018-12-16T10:08:15.549Z,13
2018-12-16T10:09:19.684Z,13
2018-12-16T10:10:22.434Z,13
2018-12-16T10:11:26.215Z,13
2018-12-16T10:12:28.401Z,13
2018-12-16T10:13:31.081Z,13
2018-12-16T10:14:33.197Z,13
2018-12-16T10:15:35.643Z,13
2018-12-16T10:16:37.815Z,13
2018-12-16T10:17:40.512Z,13
2018-12-16T10:18:42.631Z,14
2018-12-16T10:19:45.422Z,14
2018-12-16T10:20:48.647Z,14
2018-12-16T10:21:51.541Z,14
2018-12-16T10:22:54.056Z,14
2018-12-16T10:23:57.027Z,14
2018-12-16T10:24:59.618Z,13
2018-12-16T10:26:02.120Z,13
2018-12-16T10:27:04.294Z,13
2018-12-16T10:28:06.464Z,13
2018-12-16T10:29:08.706Z,12
2018-12-16T10:30:10.936Z,12
2018-12-16T10:31:13.141Z,11
2018-12-16T10:32:15.729Z,11
2018-12-16T10:33:18.560Z,12
2018-12-16T10:34:21.484Z,12
2018-12-16T10:35:23.547Z,12
2018-12-16T10:36:26.966Z,11
2018-12-16T10:37:30.135Z,11
2018-12-16T10:38:33.936Z,11
2018-12-16T10:39:36.108Z,11
2018-12-16T10:40:39.000Z,10
2018-12-16T10:41:42.127Z,10
2018-12-16T10:42:45.192Z,11
2018-12-16T10:43:47.246Z,11
2018-12-16T10:44:50.364Z,11
2018-12-16T10:45:52.893Z,11
2018-12-16T10:47:01.980Z,12
2018-12-16T10:48:13.256Z,12
2018-12-16T10:49:24.711Z,12
2018-12-16T10:50:31.228Z,12
2018-12-16T10:51:40.379Z,12
2018-12-16T10:52:54.307Z,12
2018-12-16T10:54:02.300Z,11
2018-12-16T10:55:10.413Z,11
2018-12-16T10:56:13.406Z,12
2018-12-16T10:57:16.739Z,13
2018-12-16T10:58:18.775Z,14
2018-12-16T10:59:20.941Z,15
2018-12-16T11:00:24.329Z,15
2018-12-16T11:01:26.818Z,15
2018-12-16T11:02:29.490Z,17
2018-12-16T11:03:32.122Z,18
2018-12-16T11:04:34.902Z,18
2018-12-16T11:05:38.744Z,19
2018-12-16T11:06:41.538Z,19
2018-12-16T11:07:44.342Z,19
2018-12-16T11:08:47.215Z,19
2018-12-16T11:09:50.382Z,18
2018-12-16T11:10:52.662Z,17
2018-12-16T11:11:55.133Z,17
2018-12-16T11:12:57.249Z,16
2018-12-16T11:13:59.940Z,15
2018-12-16T11:15:02.427Z,15
2018-12-16T11:16:04.527Z,15
2018-12-16T11:17:06.897Z,15
2018-12-16T11:18:08.931Z,15
2018-12-16T11:19:11.747Z,15
2018-12-16T11:20:14.293Z,14
2018-12-16T11:21:16.834Z,15
2018-12-16T11:22:19.464Z,15
2018-12-16T11:23:22.607Z,14
2018-12-16T11:24:25.286Z,14
2018-12-16T11:25:29.172Z,14
2018-12-16T11:26:31.954Z,14
2018-12-16T11:27:34.562Z,14
2018-12-16T11:28:37.407Z,14
2018-12-16T11:29:39.837Z,14
2018-12-16T11:30:42.754Z,14
2018-12-16T11:31:45.236Z,14
2018-12-16T11:32:48.684Z,14
2018-12-16T11:33:52.021Z,14
2018-12-16T11:34:56.081Z,16
2018-12-16T11:35:59.724Z,16
2018-12-16T11:37:02.399Z,17
2018-12-16T11:38:04.846Z,18
2018-12-16T11:39:08.295Z,18
2018-12-16T11:40:11.383Z,18
2018-12-16T11:41:15.412Z,18
2018-12-16T11:42:18.499Z,18
2018-12-16T11:43:21.435Z,19
2018-12-16T11:44:23.719Z,21
2018-12-16T11:45:26.937Z,23
2018-12-16T11:46:29.253Z,24
2018-12-16T11:47:31.963Z,24
2018-12-16T11:48:35.627Z,24
2018-12-16T11:49:38.745Z,24
2018-12-16T11:50:41.675Z,24
2018-12-16T11:51:44.387Z,25
2018-12-16T11:52:47.292Z,26
2018-12-16T11:53:52.346Z,25
2018-12-16T11:54:55.174Z,24
2018-12-16T11:55:57.871Z,23
2018-12-16T11:57:01.235Z,21
2018-12-16T11:58:04.062Z,20
2018-12-16T11:59:06.511Z,21
2018-12-16T12:00:09.646Z,21
2018-12-16T12:01:12.107Z,21
2018-12-16T12:02:16.072Z,20
2018-12-16T12:03:20.994Z,20
2018-12-16T12:04:25.925Z,20
2018-12-16T12:05:28.319Z,19
2018-12-16T12:06:30.435Z,18
2018-12-16T12:07:32.711Z,17
2018-12-16T12:08:34.850Z,18
2018-12-16T12:09:37.019Z,20
2018-12-16T12:10:39.504Z,22
2018-12-16T12:11:42.530Z,23
2018-12-16T12:12:45.895Z,24
2018-12-16T12:13:49.094Z,24
2018-12-16T12:14:51.381Z,24
2018-12-16T12:15:53.590Z,24
2018-12-16T12:16:56.346Z,25
2018-12-16T12:17:58.715Z,25
2018-12-16T12:19:01.795Z,25
2018-12-16T12:20:04.110Z,24
2018-12-16T12:21:06.147Z,23
2018-12-16T12:22:08.808Z,22
2018-12-16T12:23:11.394Z,21
2018-12-16T12:24:13.721Z,21
2018-12-16T12:25:21.278Z,21
2018-12-16T12:26:23.687Z,20
2018-12-16T12:27:25.730Z,19
2018-12-16T12:28:27.991Z,19
2018-12-16T12:29:30.406Z,19
2018-12-16T12:30:32.662Z,18
2018-12-16T12:31:34.872Z,18
2018-12-16T12:32:36.911Z,19
2018-12-16T12:33:40.062Z,18
2018-12-16T12:34:42.310Z,18
2018-12-16T12:35:44.840Z,18
2018-12-16T12:36:48.064Z,20
2018-12-16T12:37:50.757Z,21
2018-12-16T12:38:54.119Z,22
2018-12-16T12:39:56.362Z,24
2018-12-16T12:40:59.407Z,25
2018-12-16T12:42:02.094Z,25
2018-12-16T12:43:04.755Z,26
2018-12-16T12:44:07.145Z,27
2018-12-16T12:45:09.425Z,28
2018-12-16T12:46:12.388Z,28
2018-12-16T12:47:15.202Z,28
2018-12-16T12:48:17.725Z,29
2018-12-16T12:49:20.639Z,28
2018-12-16T12:50:23.350Z,27
2018-12-16T12:51:25.733Z,27
2018-12-16T12:52:28.460Z,28
2018-12-16T12:53:32.154Z,27
2018-12-16T12:54:34.868Z,27
2018-12-16T12:55:37.233Z,26
2018-12-16T12:56:40.156Z,26
2018-12-16T12:57:42.615Z,26
2018-12-16T12:58:46.506Z,26
2018-12-16T12:59:49.644Z,26
2018-12-16T13:00:52.402Z,25
2018-12-16T13:01:54.906Z,25
2018-12-16T13:02:57.202Z,24
2018-12-16T13:04:00.114Z,23
2018-12-16T13:05:02.933Z,23
2018-12-16T13:06:05.359Z,23
2018-12-16T13:07:08.359Z,22
2018-12-16T13:08:11.090Z,21
2018-12-16T13:09:13.729Z,20
2018-12-16T13:10:17.270Z,20
2018-12-16T13:11:19.817Z,19
2018-12-16T13:12:22.212Z,19
2018-12-16T13:13:25.558Z,19
2018-12-16T13:14:28.447Z,19
2018-12-16T13:15:31.647Z,20
2018-12-16T13:16:34.216Z,19
2018-12-16T13:17:36.579Z,19
2018-12-16T13:18:39.141Z,19
2018-12-16T13:19:42.076Z,19
2018-12-16T13:20:45.210Z,19
2018-12-16T13:21:47.453Z,18
2018-12-16T13:22:50.467Z,18
2018-12-16T13:23:52.816Z,17
2018-12-16T13:24:55.866Z,16
2018-12-16T13:25:59.339Z,16
2018-12-16T13:27:01.747Z,15
2018-12-16T13:28:04.409Z,14
2018-12-16T13:29:06.813Z,14
2018-12-16T13:30:08.979Z,14
2018-12-16T13:31:11.765Z,13
2018-12-16T13:32:14.929Z,13
2018-12-16T13:33:18.019Z,13
2018-12-16T13:34:20.605Z,13
2018-12-16T13:35:22.995Z,13
2018-12-16T13:36:26.189Z,13
2018-12-16T13:37:29.547Z,12
2018-12-16T13:38:31.991Z,12
2018-12-16T13:39:34.674Z,12
2018-12-16T13:40:37.674Z,11
2018-12-16T13:41:40.814Z,11
2018-12-16T13:42:43.711Z,11
2018-12-16T13:43:46.559Z,11
2018-12-16T13:44:48.969Z,11
2018-12-16T13:45:51.067Z,11
2018-12-16T13:46:53.722Z,11
2018-12-16T13:47:56.543Z,11
2018-12-16T13:48:59.500Z,11
2018-12-16T13:50:02.126Z,11
2018-12-16T13:51:04.662Z,12
2018-12-16T13:52:07.162Z,12
2018-12-16T13:53:10.154Z,11
2018-12-16T13:54:12.497Z,11
2018-12-16T13:55:14.601Z,11
2018-12-16T13:56:16.977Z,11
2018-12-16T13:57:19.762Z,11
2018-12-16T13:58:22.209Z,11
2018-12-16T13:59:24.273Z,10
2018-12-16T14:00:27.481Z,10
2018-12-16T14:01:30.756Z,10
2018-12-16T14:02:33.236Z,9
2018-12-16T14:03:36.578Z,9
2018-12-16T14:04:39.653Z,8
2018-12-16T14:05:48.597Z,8
2018-12-16T14:06:51.669Z,7
2018-12-16T14:07:54.790Z,7
2018-12-16T14:08:57.634Z,7
2018-12-16T14:10:00.230Z,7
2018-12-16T14:11:02.303Z,7
2018-12-16T14:12:04.775Z,6
2018-12-16T14:13:07.006Z,6
2018-12-16T14:14:09.483Z,6
2018-12-16T14:15:12.421Z,6
2018-12-16T14:16:16.232Z,6
2018-12-16T14:17:19.151Z,6
2018-12-16T14:18:23.127Z,6
2018-12-16T14:19:26.872Z,6
2018-12-16T14:20:29.463Z,5
2018-12-16T14:21:32.294Z,5
2018-12-16T14:22:35.538Z,5
2018-12-16T14:23:37.915Z,5
2018-12-16T14:24:40.258Z,5
2018-12-16T14:25:49.522Z,5
2018-12-16T14:26:51.927Z,5
2018-12-16T14:27:54.661Z,5
2018-12-16T14:28:57.072Z,5
2018-12-16T14:29:59.311Z,5
2018-12-16T14:31:02.194Z,4
2018-12-16T14:32:05.063Z,4
2018-12-16T14:33:07.318Z,4
2018-12-16T14:34:09.620Z,4
2018-12-16T14:35:12.550Z,4
2018-12-16T14:36:15.354Z,3
2018-12-16T14:37:17.687Z,3
2018-12-16T14:38:20.347Z,3
2018-12-16T14:39:22.504Z,3
2018-12-16T14:40:25.429Z,3
2018-12-16T14:41:28.021Z,2
2018-12-16T14:42:31.058Z,2
2018-12-16T14:43:33.218Z,2
2018-12-16T14:44:35.323Z,2
2018-12-16T14:45:38.115Z,1
2018-12-16T14:46:41.103Z,1
2018-12-16T14:47:43.762Z,1
2018-12-16T14:48:46.256Z,1
2018-12-16T14:49:48.590Z,1
2018-12-16T14:50:51.169Z,1
2018-12-16T14:51:53.915Z,1
2018-12-16T14:52:59.189Z,1
2018-12-16T14:54:01.769Z,0
2018-12-16T14:55:04.102Z,0
2018-12-16T14:56:06.380Z,0
2018-12-16T14:57:08.820Z,0
2018-12-16T14:58:11.160Z,0
2018-12-16T14:59:13.446Z,0
2018-12-16T15:00:16.146Z,0
2018-12-16T15:01:18.453Z,0
2018-12-16T15:02:20.781Z,0
2018-12-16T15:03:23.072Z,0
2018-12-16T15:04:25.368Z,0
2018-12-16T15:05:27.411Z,0
2018-12-16T15:06:29.424Z,0
2018-12-16T15:07:31.734Z,0
2018-12-16T15:08:33.783Z,0
2018-12-16T15:09:35.808Z,0
2018-12-16T15:10:37.830Z,0
2018-12-16T15:11:39.876Z,0
2018-12-16T15:12:41.904Z,0
2018-12-16T15:13:43.936Z,0
2018-12-16T15:14:45.969Z,0
2018-12-16T15:15:47.991Z,0